createdAt,value
2023-08-07T00:00:12.816Z,2.20
2023-08-07T00:05:35.061Z,2.00
2023-08-07T00:11:15.499Z,2.40
2023-08-07T00:16:38.047Z,2.30
2023-08-07T00:22:00.615Z,2.20
2023-08-07T00:27:23.072Z,2.17
2023-08-07T00:32:47.000Z,2.33
2023-08-07T00:38:09.448Z,2.23
2023-08-07T00:43:31.787Z,2.33
2023-08-07T00:48:54.869Z,2.37
2023-08-07T00:54:20.638Z,2.17
2023-08-07T00:59:44.220Z,2.50
2023-08-07T01:05:08.198Z,2.27
2023-08-07T01:10:47.893Z,2.17
2023-08-07T01:16:19.464Z,2.30
2023-08-07T01:21:49.164Z,2.27
2023-08-07T01:27:20.637Z,2.50
2023-08-07T01:32:52.779Z,2.07
2023-08-07T01:38:16.394Z,2.30
2023-08-07T01:43:38.759Z,2.30
2023-08-07T01:49:00.863Z,2.50
2023-08-07T01:54:22.977Z,2.27
2023-08-07T01:59:46.002Z,2.43
2023-08-07T02:05:08.455Z,2.67
2023-08-07T02:10:31.716Z,2.47
2023-08-07T02:15:54.376Z,2.43
2023-08-07T02:21:16.538Z,2.87
2023-08-07T02:26:38.864Z,2.43
2023-08-07T02:32:04.111Z,2.57
2023-08-07T02:37:26.934Z,2.43
2023-08-07T02:42:49.501Z,2.50
2023-08-07T02:48:11.791Z,2.80
2023-08-07T02:53:33.926Z,2.87
2023-08-07T02:58:59.257Z,3.10
2023-08-07T03:04:22.710Z,2.97
2023-08-07T03:09:51.135Z,3.10
2023-08-07T03:15:13.628Z,3.10
2023-08-07T03:20:38.036Z,3.47
2023-08-07T03:26:18.126Z,3.77
2023-08-07T03:31:42.945Z,3.43
2023-08-07T03:37:06.542Z,3.63
2023-08-07T03:42:29.164Z,4.50
2023-08-07T03:47:51.841Z,4.20
2023-08-07T03:53:14.619Z,3.37
2023-08-07T03:58:40.794Z,3.90
2023-08-07T04:04:03.360Z,3.97
2023-08-07T04:09:27.075Z,3.60
2023-08-07T04:14:49.335Z,3.80
2023-08-07T04:20:13.159Z,3.63
2023-08-07T04:25:35.769Z,4.20
2023-08-07T04:30:58.652Z,4.00
2023-08-07T04:36:22.259Z,4.30
2023-08-07T04:41:44.778Z,3.90
2023-08-07T04:47:07.182Z,4.00
2023-08-07T04:52:29.967Z,4.10
2023-08-07T04:57:55.384Z,3.57
2023-08-07T05:03:19.789Z,3.90
2023-08-07T05:08:42.069Z,3.70
2023-08-07T05:14:04.823Z,3.87
2023-08-07T05:19:27.262Z,3.70
2023-08-07T05:24:50.062Z,3.60
2023-08-07T05:30:13.640Z,3.77
2023-08-07T05:35:36.631Z,2.80
2023-08-07T05:40:58.888Z,3.33
2023-08-07T05:46:21.148Z,2.67
2023-08-07T05:51:43.988Z,3.00
2023-08-07T05:57:07.066Z,3.00
2023-08-07T06:02:29.456Z,2.90
2023-08-07T06:07:51.924Z,2.83
2023-08-07T06:13:19.761Z,3.10
2023-08-07T06:18:45.710Z,2.83
2023-08-07T06:24:07.955Z,2.60
2023-08-07T06:29:30.455Z,2.80
2023-08-07T06:34:53.837Z,2.60
2023-08-07T06:40:16.522Z,3.28
2023-08-07T06:45:38.962Z,2.60
2023-08-07T06:51:01.747Z,2.30
2023-08-07T06:56:26.544Z,2.80
2023-08-07T07:01:49.395Z,2.07
2023-08-07T07:07:11.896Z,2.40
2023-08-07T07:12:34.370Z,2.40
2023-08-07T07:17:57.256Z,1.77
2023-08-07T07:23:19.700Z,2.33
2023-08-07T07:28:42.009Z,1.90
2023-08-07T07:34:04.553Z,2.05
2023-08-07T07:39:27.255Z,1.98
2023-08-07T07:44:49.722Z,2.00
2023-08-07T07:50:14.114Z,2.03
2023-08-07T07:55:39.182Z,2.30
2023-08-07T08:01:01.906Z,1.30
2023-08-07T08:06:24.539Z,1.85
2023-08-07T08:11:46.935Z,1.90
2023-08-07T08:17:09.441Z,1.60
2023-08-07T08:22:32.151Z,1.90
2023-08-07T08:27:54.370Z,1.60
2023-08-07T08:33:18.728Z,2.03
2023-08-07T08:38:41.660Z,1.88
2023-08-07T08:44:06.922Z,1.73
2023-08-07T08:49:36.072Z,1.88
2023-08-07T08:54:59.133Z,2.00
2023-08-07T09:00:22.845Z,2.17
2023-08-07T09:05:47.195Z,1.90
2023-08-07T09:11:11.290Z,2.00
2023-08-07T09:16:34.666Z,2.13
2023-08-07T09:21:57.377Z,2.00
2023-08-07T09:27:19.979Z,1.98
2023-08-07T09:32:42.466Z,1.80
2023-08-07T09:38:04.946Z,1.83
2023-08-07T09:43:27.512Z,2.20
2023-08-07T09:48:50.025Z,1.77
2023-08-07T09:54:13.238Z,1.85
2023-08-07T09:59:36.185Z,1.77
2023-08-07T10:04:59.226Z,1.80
2023-08-07T10:10:21.839Z,1.70
2023-08-07T10:15:44.396Z,1.88
2023-08-07T10:21:08.153Z,2.03
2023-08-07T10:26:33.312Z,1.77
2023-08-07T10:31:59.323Z,1.80
2023-08-07T10:37:41.917Z,1.80
2023-08-07T10:43:07.305Z,1.75
2023-08-07T10:48:29.920Z,1.73
2023-08-07T10:53:56.743Z,1.52
2023-08-07T10:59:19.002Z,1.23
2023-08-07T11:04:44.107Z,1.35
2023-08-07T11:10:06.851Z,1.30
2023-08-07T11:15:29.103Z,1.25
2023-08-07T11:20:51.773Z,1.45
2023-08-07T11:26:14.256Z,1.17
2023-08-07T11:31:36.551Z,1.40
2023-08-07T11:36:59.502Z,1.50
2023-08-07T11:42:23.215Z,1.30
2023-08-07T11:47:45.937Z,1.17
2023-08-07T11:53:08.447Z,1.35
2023-08-07T11:58:41.186Z,1.40
2023-08-07T12:04:06.467Z,1.73
2023-08-07T12:09:29.322Z,1.50
2023-08-07T12:14:56.063Z,1.50
2023-08-07T12:20:18.266Z,1.77
2023-08-07T12:25:40.540Z,1.58
2023-08-07T12:31:03.866Z,2.05
2023-08-07T12:36:28.724Z,1.40
2023-08-07T12:42:24.616Z,1.52
2023-08-07T12:47:33.732Z,1.60
2023-08-07T12:52:56.557Z,1.67
2023-08-07T12:58:22.000Z,1.45
2023-08-07T13:03:44.272Z,1.70
2023-08-07T13:09:06.996Z,1.80
2023-08-07T13:14:29.255Z,1.20
2023-08-07T13:19:51.387Z,2.10
2023-08-07T13:25:15.253Z,1.55
2023-08-07T13:30:38.217Z,1.60
2023-08-07T13:36:00.661Z,2.03
2023-08-07T13:41:23.151Z,1.63
2023-08-07T13:46:46.347Z,1.85
2023-08-07T13:52:08.727Z,1.52
2023-08-07T13:57:31.197Z,1.63
2023-08-07T14:02:53.649Z,1.50
2023-08-07T14:08:15.999Z,1.95
2023-08-07T14:13:38.556Z,2.00
2023-08-07T14:19:00.941Z,1.60
2023-08-07T14:24:23.602Z,1.90
2023-08-07T14:29:45.909Z,1.88
2023-08-07T14:35:08.506Z,1.88
2023-08-07T14:40:31.482Z,2.40
2023-08-07T14:45:56.121Z,2.22
2023-08-07T14:51:18.840Z,2.30
2023-08-07T14:56:42.028Z,1.88
2023-08-07T15:02:05.014Z,1.70
2023-08-07T15:07:27.392Z,1.55
2023-08-07T15:12:49.928Z,2.05
2023-08-07T15:18:12.149Z,1.67
2023-08-07T15:23:35.926Z,1.80
2023-08-07T15:28:58.274Z,1.63
2023-08-07T15:34:20.528Z,1.65
2023-08-07T15:39:43.012Z,1.63
2023-08-07T15:45:06.327Z,1.67
2023-08-07T15:50:29.305Z,1.77
2023-08-07T15:55:51.583Z,1.40
2023-08-07T16:01:13.881Z,1.17
2023-08-07T16:06:36.303Z,1.90
2023-08-07T16:11:59.033Z,1.85
2023-08-07T16:17:21.400Z,1.75
2023-08-07T16:22:43.967Z,1.13
2023-08-07T16:28:06.786Z,2.10
2023-08-07T16:33:29.210Z,1.60
2023-08-07T16:38:52.527Z,1.52
2023-08-07T16:44:15.077Z,1.90
2023-08-07T16:49:39.744Z,1.70
2023-08-07T16:55:03.720Z,1.73
2023-08-07T17:00:26.430Z,1.70
2023-08-07T17:05:49.033Z,1.85
2023-08-07T17:11:11.496Z,1.90
2023-08-07T17:16:33.705Z,2.10
2023-08-07T17:21:56.314Z,1.80
2023-08-07T17:27:18.694Z,1.70
2023-08-07T17:32:41.044Z,2.28
2023-08-07T17:38:05.311Z,1.55
2023-08-07T17:43:28.044Z,2.15
2023-08-07T17:48:50.449Z,1.38
2023-08-07T17:54:13.176Z,1.50
2023-08-07T17:59:35.646Z,1.33
2023-08-07T18:04:58.158Z,1.48
2023-08-07T18:10:20.604Z,1.48
2023-08-07T18:15:43.148Z,1.40
2023-08-07T18:21:05.384Z,1.98
2023-08-07T18:26:27.870Z,1.52
2023-08-07T18:31:50.425Z,1.42
2023-08-07T18:37:14.096Z,1.60
2023-08-07T18:42:36.965Z,2.20
2023-08-07T18:47:59.418Z,1.83
2023-08-07T18:53:22.005Z,1.88
2023-08-07T18:58:44.328Z,2.00
2023-08-07T19:04:07.022Z,1.70
2023-08-07T19:09:30.333Z,2.08
2023-08-07T19:14:52.742Z,1.80
2023-08-07T19:20:15.146Z,1.90
2023-08-07T19:25:38.143Z,1.60
2023-08-07T19:31:06.392Z,1.85
2023-08-07T19:36:29.483Z,1.70
2023-08-07T19:41:51.979Z,2.00
2023-08-07T19:47:25.774Z,1.60
2023-08-07T19:52:56.880Z,1.90
2023-08-07T19:58:20.740Z,1.50
2023-08-07T20:03:42.978Z,1.92
2023-08-07T20:09:05.500Z,1.75
2023-08-07T20:14:27.839Z,1.48
2023-08-07T20:19:50.074Z,1.90
2023-08-07T20:25:15.158Z,1.50
2023-08-07T20:30:37.519Z,2.15
2023-08-07T20:36:00.421Z,1.70
2023-08-07T20:41:22.943Z,1.80
2023-08-07T20:46:45.713Z,1.70
2023-08-07T20:52:08.440Z,1.80
2023-08-07T20:57:30.791Z,1.80
2023-08-07T21:02:53.691Z,1.50
2023-08-07T21:08:16.053Z,1.48
2023-08-07T21:13:39.645Z,1.90
2023-08-07T21:19:02.328Z,1.57
2023-08-07T21:24:24.827Z,1.70
2023-08-07T21:29:47.166Z,1.85
2023-08-07T21:35:09.879Z,1.67
2023-08-07T21:40:32.218Z,1.80
2023-08-07T21:45:54.637Z,1.80
2023-08-07T21:51:17.197Z,1.92
2023-08-07T21:56:43.307Z,1.67
2023-08-07T22:02:06.236Z,1.90
2023-08-07T22:07:28.821Z,1.95
2023-08-07T22:12:51.380Z,1.87
2023-08-07T22:18:14.270Z,2.03
2023-08-07T22:23:36.636Z,2.30
2023-08-07T22:28:59.012Z,1.63
2023-08-07T22:34:21.537Z,1.83
2023-08-07T22:39:43.806Z,2.00
2023-08-07T22:45:06.900Z,1.80
2023-08-07T22:50:29.401Z,1.60
2023-08-07T22:55:52.062Z,1.70
2023-08-07T23:01:14.526Z,1.77
2023-08-07T23:06:36.950Z,2.40
2023-08-07T23:12:00.001Z,1.90
2023-08-07T23:17:22.869Z,2.13
2023-08-07T23:22:45.457Z,1.70
2023-08-07T23:28:08.186Z,2.40
2023-08-07T23:33:30.662Z,2.00
2023-08-07T23:38:53.170Z,1.70
2023-08-07T23:44:15.604Z,1.67
2023-08-07T23:49:37.846Z,1.50
2023-08-07T23:55:00.274Z,1.80
